Tuckahoe, New York
Current Conditions -  °F | °C
As of 11:56 PM on Monday 26 Jan 2015 (Local Time) from KHPN Reporting Station
Moderate Snow Moderate Snow  
Wind Chill:   Ceiling: 200
Heat Index: 23°   Visibility: 0.5mi
Dew Point: 19°   Wind: 18mph
Humidity: 85%   Direction: 360°N
Pressure: 29.65"   Gusts: 30mph
Location:  40.95°N, 73.83°W
Report Text: KHPN 270456Z 36016G26KT 1/2SM R16/5000VP6000FT SN FZFG VV002 M05/M07 A2965 RMK AO2 PK WND 36026/0456 SLP052 P0000 T10501072 402171072
Loading
Personal Weather Stations






























Interactive Weather Map New forecast layout! Learn more

10-Day Weather Forecast

Advertisements
Track Severe Weather on mobile